Pagrindinis puslapis
METAR-TAF:

METAR-TAF

Oro uostai :

Simferopolis, Rusija

platuma: 45-03-08N, ilguma: 033-58-31E, Aukštis: 195 m

Dabartinis oras

Ataskaita buvo paskelbta 23 minutes, ne 18:30 UTC
Vėjas 6 kt iš Rytų/Pietryčių
Temperatūra 16°C
Drėgmė 36%
Slėgis 1022 hPa
Matomumas 10 km arba daugiau
nėra debesų žemiau 1500 m ir nėra kamuolinių lietaus debesų

METAR: URFF 151830Z 11003MPS CAVOK 16/01 Q1022 R01/090095 NOSIG

Laikas: 21:53 (18:53 UTC)

Prognozė

Ataskaita buvo paskelbta 2 valandos ir 3 minutes, ne 16:50 UTC
Prognozė galioja nuo 15 metu 18 UTC su 16 metu 18 UTC
Vėjas 6 kt iš Rytų/Pietryčių
Matomumas 10 km arba daugiau
nėra debesų žemiau 1500 m ir nėra kamuolinių lietaus debesų
Nuo 16 metu 0900 UTC
Vėjas 6 kt iš Vakarų
Matomumas 10 km arba daugiau
Išsisklaidę debesys ne aukštis 4000 ft, Liūtiniai kamuoliniai debesys.

TAF: URFF 151650Z 1518/1618 12003MPS CAVOK FM160900 27003MPS 9999 SCT040CB

Orai ataskaitas ir orų prognozės (METAR, TAF).

turimą stotys yra geltonos ir raudonos taškus žemėlapyje.

Perkelti pele per norėdami pamatyti stoties vardą.

Tada spustelėkite, norėdami matyti oro stebėjimo ir prognozės.

Norėdami pakeisti žemėlapį: spustelėkite ant žalios mygtukų su juodo kryžiaus žemyn,; žalią mygtuką su brūkšneliu, jei norite nutolinti; arba žalių rodyklių gretimoms žemėlapius.


METAR-TAF: